sensor_id;sensor_type;location;lat;lon;timestamp;P1;durP1;ratioP1;P2;durP2;ratioP2
27668;SDS011;15075;54.254;9.066;2022-07-09T00:01:13;5.80;;;3.00;;
27668;SDS011;15075;54.254;9.066;2022-07-09T00:08:48;8.50;;;2.40;;
27668;SDS011;15075;54.254;9.066;2022-07-09T00:13:50;6.60;;;3.00;;
27668;SDS011;15075;54.254;9.066;2022-07-09T00:16:20;7.30;;;3.30;;
27668;SDS011;15075;54.254;9.066;2022-07-09T00:18:49;4.30;;;2.70;;
27668;SDS011;15075;54.254;9.066;2022-07-09T00:21:19;7.40;;;3.40;;
27668;SDS011;15075;54.254;9.066;2022-07-09T00:26:18;8.90;;;3.50;;
27668;SDS011;15075;54.254;9.066;2022-07-09T00:28:47;7.03;;;2.60;;
27668;SDS011;15075;54.254;9.066;2022-07-09T00:33:46;3.87;;;2.80;;
27668;SDS011;15075;54.254;9.066;2022-07-09T00:36:15;11.80;;;3.90;;
27668;SDS011;15075;54.254;9.066;2022-07-09T00:38:45;5.65;;;2.95;;
27668;SDS011;15075;54.254;9.066;2022-07-09T00:41:15;23.27;;;3.33;;
27668;SDS011;15075;54.254;9.066;2022-07-09T00:43:45;10.63;;;3.30;;
27668;SDS011;15075;54.254;9.066;2022-07-09T00:48:43;11.90;;;3.70;;
27668;SDS011;15075;54.254;9.066;2022-07-09T00:51:13;5.50;;;3.23;;
27668;SDS011;15075;54.254;9.066;2022-07-09T00:53:42;6.10;;;3.50;;
27668;SDS011;15075;54.254;9.066;2022-07-09T00:58:42;9.20;;;3.50;;
27668;SDS011;15075;54.254;9.066;2022-07-09T01:01:11;7.87;;;2.97;;
27668;SDS011;15075;54.254;9.066;2022-07-09T01:03:41;12.40;;;4.10;;
27668;SDS011;15075;54.254;9.066;2022-07-09T01:06:10;8.83;;;3.50;;
27668;SDS011;15075;54.254;9.066;2022-07-09T01:08:40;6.57;;;3.20;;
27668;SDS011;15075;54.254;9.066;2022-07-09T01:11:09;6.60;;;3.47;;
27668;SDS011;15075;54.254;9.066;2022-07-09T01:13:39;8.40;;;3.43;;
27668;SDS011;15075;54.254;9.066;2022-07-09T01:16:15;10.40;;;3.90;;
27668;SDS011;15075;54.254;9.066;2022-07-09T01:18:45;5.30;;;3.13;;
27668;SDS011;15075;54.254;9.066;2022-07-09T01:23:43;11.00;;;3.02;;
27668;SDS011;15075;54.254;9.066;2022-07-09T01:26:13;10.00;;;3.20;;
27668;SDS011;15075;54.254;9.066;2022-07-09T01:28:43;10.10;;;3.33;;
27668;SDS011;15075;54.254;9.066;2022-07-09T01:33:42;12.43;;;3.23;;
27668;SDS011;15075;54.254;9.066;2022-07-09T01:36:12;9.20;;;3.50;;
27668;SDS011;15075;54.254;9.066;2022-07-09T01:38:42;9.13;;;3.60;;
27668;SDS011;15075;54.254;9.066;2022-07-09T01:41:11;6.45;;;2.87;;
27668;SDS011;15075;54.254;9.066;2022-07-09T01:43:41;6.37;;;2.80;;
27668;SDS011;15075;54.254;9.066;2022-07-09T01:51:09;5.90;;;3.00;;
27668;SDS011;15075;54.254;9.066;2022-07-09T01:53:39;3.08;;;2.77;;
27668;SDS011;15075;54.254;9.066;2022-07-09T01:58:38;6.03;;;2.90;;
27668;SDS011;15075;54.254;9.066;2022-07-09T02:01:07;3.40;;;2.57;;
27668;SDS011;15075;54.254;9.066;2022-07-09T02:03:37;11.60;;;3.60;;
27668;SDS011;15075;54.254;9.066;2022-07-09T02:10:33;4.20;;;3.07;;
27668;SDS011;15075;54.254;9.066;2022-07-09T02:13:02;5.70;;;2.87;;
27668;SDS011;15075;54.254;9.066;2022-07-09T02:15:32;12.27;;;3.13;;
27668;SDS011;15075;54.254;9.066;2022-07-09T02:18:01;6.90;;;2.87;;
27668;SDS011;15075;54.254;9.066;2022-07-09T02:20:31;5.27;;;3.20;;
27668;SDS011;15075;54.254;9.066;2022-07-09T02:23:01;4.40;;;2.90;;
27668;SDS011;15075;54.254;9.066;2022-07-09T02:25:30;5.65;;;2.87;;
27668;SDS011;15075;54.254;9.066;2022-07-09T02:28:00;5.45;;;2.75;;
27668;SDS011;15075;54.254;9.066;2022-07-09T02:30:29;5.60;;;2.90;;
27668;SDS011;15075;54.254;9.066;2022-07-09T02:32:59;6.13;;;2.90;;
27668;SDS011;15075;54.254;9.066;2022-07-09T02:35:37;9.95;;;3.05;;
27668;SDS011;15075;54.254;9.066;2022-07-09T02:38:17;5.33;;;2.80;;
27668;SDS011;15075;54.254;9.066;2022-07-09T02:40:47;4.60;;;3.27;;
27668;SDS011;15075;54.254;9.066;2022-07-09T02:45:46;4.28;;;2.58;;
27668;SDS011;15075;54.254;9.066;2022-07-09T02:48:16;3.10;;;2.40;;
27668;SDS011;15075;54.254;9.066;2022-07-09T02:50:45;5.75;;;2.30;;
27668;SDS011;15075;54.254;9.066;2022-07-09T02:53:15;3.50;;;2.20;;
27668;SDS011;15075;54.254;9.066;2022-07-09T02:55:44;3.20;;;2.30;;
27668;SDS011;15075;54.254;9.066;2022-07-09T02:58:13;8.00;;;2.80;;
27668;SDS011;15075;54.254;9.066;2022-07-09T03:00:43;3.60;;;2.17;;
27668;SDS011;15075;54.254;9.066;2022-07-09T03:03:13;4.40;;;2.43;;
27668;SDS011;15075;54.254;9.066;2022-07-09T03:05:42;5.30;;;2.70;;
27668;SDS011;15075;54.254;9.066;2022-07-09T03:08:11;5.07;;;2.40;;
27668;SDS011;15075;54.254;9.066;2022-07-09T03:13:10;5.17;;;2.70;;
27668;SDS011;15075;54.254;9.066;2022-07-09T03:18:09;3.40;;;2.70;;
27668;SDS011;15075;54.254;9.066;2022-07-09T03:23:09;4.30;;;2.80;;
27668;SDS011;15075;54.254;9.066;2022-07-09T03:28:07;6.60;;;2.75;;
27668;SDS011;15075;54.254;9.066;2022-07-09T03:30:36;8.80;;;2.63;;
27668;SDS011;15075;54.254;9.066;2022-07-09T03:33:06;6.55;;;2.77;;
27668;SDS011;15075;54.254;9.066;2022-07-09T03:35:35;9.30;;;3.00;;
27668;SDS011;15075;54.254;9.066;2022-07-09T03:38:05;3.83;;;2.73;;
27668;SDS011;15075;54.254;9.066;2022-07-09T03:40:34;8.00;;;2.50;;
27668;SDS011;15075;54.254;9.066;2022-07-09T03:43:04;5.15;;;2.70;;
27668;SDS011;15075;54.254;9.066;2022-07-09T03:48:03;4.25;;;2.60;;
27668;SDS011;15075;54.254;9.066;2022-07-09T03:53:08;8.98;;;2.72;;
27668;SDS011;15075;54.254;9.066;2022-07-09T03:58:06;9.50;;;3.00;;
27668;SDS011;15075;54.254;9.066;2022-07-09T04:00:36;4.40;;;3.00;;
27668;SDS011;15075;54.254;9.066;2022-07-09T04:05:35;4.65;;;2.60;;
27668;SDS011;15075;54.254;9.066;2022-07-09T04:08:05;4.97;;;2.60;;
27668;SDS011;15075;54.254;9.066;2022-07-09T04:10:34;3.87;;;2.70;;
27668;SDS011;15075;54.254;9.066;2022-07-09T04:13:04;10.53;;;2.70;;
27668;SDS011;15075;54.254;9.066;2022-07-09T04:15:33;5.40;;;2.50;;
27668;SDS011;15075;54.254;9.066;2022-07-09T04:19:21;4.70;;;2.90;;
27668;SDS011;15075;54.254;9.066;2022-07-09T04:21:50;4.40;;;2.63;;
27668;SDS011;15075;54.254;9.066;2022-07-09T04:25:43;5.10;;;2.90;;
27668;SDS011;15075;54.254;9.066;2022-07-09T04:28:12;3.90;;;2.60;;
27668;SDS011;15075;54.254;9.066;2022-07-09T04:38:08;7.03;;;2.80;;
27668;SDS011;15075;54.254;9.066;2022-07-09T04:50:34;5.73;;;2.93;;
27668;SDS011;15075;54.254;9.066;2022-07-09T04:55:33;6.00;;;3.03;;
27668;SDS011;15075;54.254;9.066;2022-07-09T05:00:49;5.00;;;3.17;;
27668;SDS011;15075;54.254;9.066;2022-07-09T05:06:01;9.00;;;3.20;;
27668;SDS011;15075;54.254;9.066;2022-07-09T05:08:30;9.20;;;4.13;;
27668;SDS011;15075;54.254;9.066;2022-07-09T05:13:33;4.97;;;3.53;;
27668;SDS011;15075;54.254;9.066;2022-07-09T05:16:08;6.30;;;3.57;;
27668;SDS011;15075;54.254;9.066;2022-07-09T05:21:16;8.13;;;3.50;;
27668;SDS011;15075;54.254;9.066;2022-07-09T05:24:00;12.30;;;3.73;;
27668;SDS011;15075;54.254;9.066;2022-07-09T05:26:39;5.70;;;4.23;;
27668;SDS011;15075;54.254;9.066;2022-07-09T05:29:14;6.83;;;3.90;;
27668;SDS011;15075;54.254;9.066;2022-07-09T05:34:27;5.53;;;3.27;;
27668;SDS011;15075;54.254;9.066;2022-07-09T05:37:16;6.03;;;3.53;;
27668;SDS011;15075;54.254;9.066;2022-07-09T05:39:50;9.83;;;4.23;;
27668;SDS011;15075;54.254;9.066;2022-07-09T05:42:25;7.50;;;3.90;;
27668;SDS011;15075;54.254;9.066;2022-07-09T05:45:04;7.57;;;3.73;;
27668;SDS011;15075;54.254;9.066;2022-07-09T05:47:36;5.97;;;3.50;;
27668;SDS011;15075;54.254;9.066;2022-07-09T05:52:44;4.70;;;3.60;;
27668;SDS011;15075;54.254;9.066;2022-07-09T06:00:29;8.50;;;3.40;;
27668;SDS011;15075;54.254;9.066;2022-07-09T06:05:43;5.00;;;3.53;;
27668;SDS011;15075;54.254;9.066;2022-07-09T06:08:08;7.63;;;3.30;;
27668;SDS011;15075;54.254;9.066;2022-07-09T06:10:38;8.90;;;3.10;;
27668;SDS011;15075;54.254;9.066;2022-07-09T06:13:09;9.90;;;3.65;;
27668;SDS011;15075;54.254;9.066;2022-07-09T06:18:12;7.13;;;3.10;;
27668;SDS011;15075;54.254;9.066;2022-07-09T06:20:52;10.23;;;3.37;;
27668;SDS011;15075;54.254;9.066;2022-07-09T06:23:22;10.60;;;3.37;;
27668;SDS011;15075;54.254;9.066;2022-07-09T06:25:55;7.50;;;3.00;;
27668;SDS011;15075;54.254;9.066;2022-07-09T06:28:25;9.50;;;2.70;;
27668;SDS011;15075;54.254;9.066;2022-07-09T06:30:55;6.30;;;3.10;;
27668;SDS011;15075;54.254;9.066;2022-07-09T06:33:25;7.30;;;2.97;;
27668;SDS011;15075;54.254;9.066;2022-07-09T06:35:55;5.23;;;2.73;;
27668;SDS011;15075;54.254;9.066;2022-07-09T06:43:26;4.95;;;3.00;;
27668;SDS011;15075;54.254;9.066;2022-07-09T06:48:34;6.67;;;2.70;;
27668;SDS011;15075;54.254;9.066;2022-07-09T06:51:06;5.20;;;2.60;;
27668;SDS011;15075;54.254;9.066;2022-07-09T06:53:39;3.70;;;2.57;;
27668;SDS011;15075;54.254;9.066;2022-07-09T06:56:09;3.50;;;2.35;;
27668;SDS011;15075;54.254;9.066;2022-07-09T06:58:39;2.60;;;2.20;;
27668;SDS011;15075;54.254;9.066;2022-07-09T07:01:09;3.80;;;2.13;;
27668;SDS011;15075;54.254;9.066;2022-07-09T07:03:39;4.80;;;2.23;;
27668;SDS011;15075;54.254;9.066;2022-07-09T07:06:14;3.87;;;2.37;;
27668;SDS011;15075;54.254;9.066;2022-07-09T07:08:44;4.80;;;2.20;;
27668;SDS011;15075;54.254;9.066;2022-07-09T07:11:16;5.40;;;2.50;;
27668;SDS011;15075;54.254;9.066;2022-07-09T07:13:46;2.93;;;2.03;;
27668;SDS011;15075;54.254;9.066;2022-07-09T07:16:19;6.40;;;2.50;;
27668;SDS011;15075;54.254;9.066;2022-07-09T07:19:11;4.83;;;2.90;;
27668;SDS011;15075;54.254;9.066;2022-07-09T07:21:43;2.60;;;1.83;;
27668;SDS011;15075;54.254;9.066;2022-07-09T07:24:13;4.83;;;1.83;;
27668;SDS011;15075;54.254;9.066;2022-07-09T07:26:44;4.35;;;2.25;;
27668;SDS011;15075;54.254;9.066;2022-07-09T07:29:14;3.40;;;1.80;;
27668;SDS011;15075;54.254;9.066;2022-07-09T07:31:43;6.37;;;2.23;;
27668;SDS011;15075;54.254;9.066;2022-07-09T07:34:13;5.15;;;1.62;;
27668;SDS011;15075;54.254;9.066;2022-07-09T07:41:41;5.60;;;2.10;;
27668;SDS011;15075;54.254;9.066;2022-07-09T07:44:10;4.73;;;1.97;;
27668;SDS011;15075;54.254;9.066;2022-07-09T07:46:43;4.30;;;2.10;;
27668;SDS011;15075;54.254;9.066;2022-07-09T07:49:12;6.83;;;1.83;;
27668;SDS011;15075;54.254;9.066;2022-07-09T07:51:42;3.10;;;1.67;;
27668;SDS011;15075;54.254;9.066;2022-07-09T07:54:13;3.93;;;1.80;;
27668;SDS011;15075;54.254;9.066;2022-07-09T07:56:57;5.97;;;1.87;;
27668;SDS011;15075;54.254;9.066;2022-07-09T07:59:35;7.40;;;1.80;;
27668;SDS011;15075;54.254;9.066;2022-07-09T08:02:05;4.37;;;1.73;;
27668;SDS011;15075;54.254;9.066;2022-07-09T08:04:34;3.57;;;1.47;;
27668;SDS011;15075;54.254;9.066;2022-07-09T08:07:03;4.20;;;1.83;;
27668;SDS011;15075;54.254;9.066;2022-07-09T08:12:13;2.73;;;1.80;;
27668;SDS011;15075;54.254;9.066;2022-07-09T08:14:46;7.08;;;1.95;;
27668;SDS011;15075;54.254;9.066;2022-07-09T08:17:16;7.37;;;2.17;;
27668;SDS011;15075;54.254;9.066;2022-07-09T08:19:49;9.83;;;2.02;;
27668;SDS011;15075;54.254;9.066;2022-07-09T08:22:18;7.37;;;1.80;;
27668;SDS011;15075;54.254;9.066;2022-07-09T08:24:48;6.30;;;1.70;;
27668;SDS011;15075;54.254;9.066;2022-07-09T08:27:30;3.73;;;2.00;;
27668;SDS011;15075;54.254;9.066;2022-07-09T08:30:00;4.50;;;1.50;;
27668;SDS011;15075;54.254;9.066;2022-07-09T08:32:47;2.90;;;1.60;;
27668;SDS011;15075;54.254;9.066;2022-07-09T08:35:18;3.43;;;1.50;;
27668;SDS011;15075;54.254;9.066;2022-07-09T08:37:55;4.00;;;1.50;;
27668;SDS011;15075;54.254;9.066;2022-07-09T08:40:36;2.70;;;1.40;;
27668;SDS011;15075;54.254;9.066;2022-07-09T08:45:34;2.40;;;1.40;;
27668;SDS011;15075;54.254;9.066;2022-07-09T08:48:04;3.40;;;1.30;;
27668;SDS011;15075;54.254;9.066;2022-07-09T08:50:35;1.85;;;1.40;;
27668;SDS011;15075;54.254;9.066;2022-07-09T08:53:08;2.63;;;1.50;;
27668;SDS011;15075;54.254;9.066;2022-07-09T08:55:37;2.70;;;1.60;;
27668;SDS011;15075;54.254;9.066;2022-07-09T08:58:11;3.30;;;1.20;;
27668;SDS011;15075;54.254;9.066;2022-07-09T09:00:42;2.50;;;1.47;;
27668;SDS011;15075;54.254;9.066;2022-07-09T09:05:45;9.10;;;1.90;;
27668;SDS011;15075;54.254;9.066;2022-07-09T09:10:48;3.03;;;1.30;;
27668;SDS011;15075;54.254;9.066;2022-07-09T09:13:18;3.40;;;1.47;;
27668;SDS011;15075;54.254;9.066;2022-07-09T09:20:49;3.07;;;1.60;;
27668;SDS011;15075;54.254;9.066;2022-07-09T09:23:20;3.50;;;1.60;;
27668;SDS011;15075;54.254;9.066;2022-07-09T09:41:02;7.03;;;2.00;;
27668;SDS011;15075;54.254;9.066;2022-07-09T09:47:06;2.40;;;1.50;;
27668;SDS011;15075;54.254;9.066;2022-07-09T09:49:37;4.00;;;1.60;;
27668;SDS011;15075;54.254;9.066;2022-07-09T09:52:08;3.30;;;1.60;;
27668;SDS011;15075;54.254;9.066;2022-07-09T09:54:56;3.33;;;1.73;;
27668;SDS011;15075;54.254;9.066;2022-07-09T09:57:24;5.13;;;1.80;;
27668;SDS011;15075;54.254;9.066;2022-07-09T09:59:54;7.40;;;2.30;;
27668;SDS011;15075;54.254;9.066;2022-07-09T10:02:24;6.45;;;1.85;;
27668;SDS011;15075;54.254;9.066;2022-07-09T10:04:55;5.67;;;1.57;;
27668;SDS011;15075;54.254;9.066;2022-07-09T10:07:24;9.30;;;1.93;;
27668;SDS011;15075;54.254;9.066;2022-07-09T10:09:57;5.25;;;1.47;;
27668;SDS011;15075;54.254;9.066;2022-07-09T10:15:55;7.20;;;2.50;;
27668;SDS011;15075;54.254;9.066;2022-07-09T10:18:34;4.97;;;1.87;;
27668;SDS011;15075;54.254;9.066;2022-07-09T10:21:07;4.50;;;1.90;;
27668;SDS011;15075;54.254;9.066;2022-07-09T10:23:37;3.57;;;2.00;;
27668;SDS011;15075;54.254;9.066;2022-07-09T10:26:06;7.00;;;1.60;;
27668;SDS011;15075;54.254;9.066;2022-07-09T10:33:43;5.15;;;1.70;;
27668;SDS011;15075;54.254;9.066;2022-07-09T10:36:12;6.50;;;1.60;;
27668;SDS011;15075;54.254;9.066;2022-07-09T10:38:40;2.37;;;1.20;;
27668;SDS011;15075;54.254;9.066;2022-07-09T10:41:10;1.83;;;1.30;;
27668;SDS011;15075;54.254;9.066;2022-07-09T10:43:41;8.67;;;1.77;;
27668;SDS011;15075;54.254;9.066;2022-07-09T10:46:10;4.73;;;1.40;;
27668;SDS011;15075;54.254;9.066;2022-07-09T10:48:39;5.73;;;1.40;;
27668;SDS011;15075;54.254;9.066;2022-07-09T10:51:16;7.53;;;1.57;;
27668;SDS011;15075;54.254;9.066;2022-07-09T10:53:38;4.00;;;1.53;;
27668;SDS011;15075;54.254;9.066;2022-07-09T10:56:08;2.37;;;1.17;;
27668;SDS011;15075;54.254;9.066;2022-07-09T10:58:40;4.40;;;1.40;;
27668;SDS011;15075;54.254;9.066;2022-07-09T11:01:10;3.73;;;1.77;;
27668;SDS011;15075;54.254;9.066;2022-07-09T11:03:39;4.50;;;1.75;;
27668;SDS011;15075;54.254;9.066;2022-07-09T11:06:09;5.50;;;2.00;;
27668;SDS011;15075;54.254;9.066;2022-07-09T11:08:39;4.43;;;1.20;;
27668;SDS011;15075;54.254;9.066;2022-07-09T11:11:08;7.53;;;2.10;;
27668;SDS011;15075;54.254;9.066;2022-07-09T11:16:07;3.98;;;1.47;;
27668;SDS011;15075;54.254;9.066;2022-07-09T11:18:37;4.60;;;1.10;;
27668;SDS011;15075;54.254;9.066;2022-07-09T11:23:36;2.10;;;1.40;;
27668;SDS011;15075;54.254;9.066;2022-07-09T11:28:35;4.00;;;1.47;;
27668;SDS011;15075;54.254;9.066;2022-07-09T11:31:04;3.75;;;1.50;;
27668;SDS011;15075;54.254;9.066;2022-07-09T11:33:33;3.03;;;1.50;;
27668;SDS011;15075;54.254;9.066;2022-07-09T11:36:03;7.10;;;2.17;;
27668;SDS011;15075;54.254;9.066;2022-07-09T11:38:33;3.07;;;1.20;;
27668;SDS011;15075;54.254;9.066;2022-07-09T11:41:02;3.03;;;1.07;;
27668;SDS011;15075;54.254;9.066;2022-07-09T11:43:32;5.30;;;1.40;;
27668;SDS011;15075;54.254;9.066;2022-07-09T11:46:02;10.00;;;1.40;;
27668;SDS011;15075;54.254;9.066;2022-07-09T11:51:01;4.50;;;1.50;;
27668;SDS011;15075;54.254;9.066;2022-07-09T11:53:31;2.40;;;1.40;;
27668;SDS011;15075;54.254;9.066;2022-07-09T11:56:01;2.80;;;1.17;;
27668;SDS011;15075;54.254;9.066;2022-07-09T11:58:30;2.17;;;1.30;;
27668;SDS011;15075;54.254;9.066;2022-07-09T12:07:16;3.10;;;1.20;;
27668;SDS011;15075;54.254;9.066;2022-07-09T12:09:58;2.70;;;1.30;;
27668;SDS011;15075;54.254;9.066;2022-07-09T12:12:36;7.50;;;1.50;;
27668;SDS011;15075;54.254;9.066;2022-07-09T12:15:06;3.80;;;1.30;;
27668;SDS011;15075;54.254;9.066;2022-07-09T12:17:36;2.33;;;1.20;;
27668;SDS011;15075;54.254;9.066;2022-07-09T12:20:07;6.27;;;1.80;;
27668;SDS011;15075;54.254;9.066;2022-07-09T12:22:47;4.73;;;1.73;;
27668;SDS011;15075;54.254;9.066;2022-07-09T12:25:16;5.10;;;1.30;;
27668;SDS011;15075;54.254;9.066;2022-07-09T12:27:46;3.70;;;1.20;;
27668;SDS011;15075;54.254;9.066;2022-07-09T12:35:19;7.87;;;2.37;;
27668;SDS011;15075;54.254;9.066;2022-07-09T12:37:48;7.20;;;1.50;;
27668;SDS011;15075;54.254;9.066;2022-07-09T12:40:18;7.90;;;2.03;;
27668;SDS011;15075;54.254;9.066;2022-07-09T12:53:01;5.90;;;1.70;;
27668;SDS011;15075;54.254;9.066;2022-07-09T12:55:30;3.80;;;1.80;;
27668;SDS011;15075;54.254;9.066;2022-07-09T12:58:00;9.50;;;1.90;;
27668;SDS011;15075;54.254;9.066;2022-07-09T13:00:29;4.20;;;1.80;;
27668;SDS011;15075;54.254;9.066;2022-07-09T13:02:59;6.60;;;1.67;;
27668;SDS011;15075;54.254;9.066;2022-07-09T13:05:29;4.10;;;1.30;;
27668;SDS011;15075;54.254;9.066;2022-07-09T13:07:58;6.60;;;1.50;;
27668;SDS011;15075;54.254;9.066;2022-07-09T13:10:28;6.00;;;1.70;;
27668;SDS011;15075;54.254;9.066;2022-07-09T13:15:29;5.20;;;1.80;;
27668;SDS011;15075;54.254;9.066;2022-07-09T13:17:59;4.00;;;1.50;;
27668;SDS011;15075;54.254;9.066;2022-07-09T13:20:31;4.07;;;1.60;;
27668;SDS011;15075;54.254;9.066;2022-07-09T13:23:01;4.40;;;1.57;;
27668;SDS011;15075;54.254;9.066;2022-07-09T13:25:34;3.70;;;1.52;;
27668;SDS011;15075;54.254;9.066;2022-07-09T13:28:03;3.50;;;1.43;;
27668;SDS011;15075;54.254;9.066;2022-07-09T13:30:33;9.80;;;1.50;;
27668;SDS011;15075;54.254;9.066;2022-07-09T13:35:33;3.47;;;1.40;;
27668;SDS011;15075;54.254;9.066;2022-07-09T13:38:02;3.30;;;1.40;;
27668;SDS011;15075;54.254;9.066;2022-07-09T13:45:38;6.80;;;1.80;;
27668;SDS011;15075;54.254;9.066;2022-07-09T13:48:08;5.83;;;1.73;;
27668;SDS011;15075;54.254;9.066;2022-07-09T13:50:37;4.30;;;1.67;;
27668;SDS011;15075;54.254;9.066;2022-07-09T13:53:07;5.40;;;1.70;;
27668;SDS011;15075;54.254;9.066;2022-07-09T13:55:36;3.33;;;1.40;;
27668;SDS011;15075;54.254;9.066;2022-07-09T13:58:06;5.33;;;1.93;;
27668;SDS011;15075;54.254;9.066;2022-07-09T14:00:35;8.10;;;2.00;;
27668;SDS011;15075;54.254;9.066;2022-07-09T14:03:04;6.30;;;1.80;;
27668;SDS011;15075;54.254;9.066;2022-07-09T14:08:09;5.30;;;1.60;;
27668;SDS011;15075;54.254;9.066;2022-07-09T14:15:40;7.33;;;1.90;;
27668;SDS011;15075;54.254;9.066;2022-07-09T14:18:09;9.37;;;2.13;;
27668;SDS011;15075;54.254;9.066;2022-07-09T14:20:38;4.45;;;2.65;;
27668;SDS011;15075;54.254;9.066;2022-07-09T14:23:08;7.73;;;1.87;;
27668;SDS011;15075;54.254;9.066;2022-07-09T14:25:37;7.93;;;1.53;;
27668;SDS011;15075;54.254;9.066;2022-07-09T14:28:06;9.60;;;1.80;;
27668;SDS011;15075;54.254;9.066;2022-07-09T14:30:35;6.60;;;2.25;;
27668;SDS011;15075;54.254;9.066;2022-07-09T14:33:04;3.10;;;1.57;;
27668;SDS011;15075;54.254;9.066;2022-07-09T14:35:34;8.30;;;1.80;;
27668;SDS011;15075;54.254;9.066;2022-07-09T14:40:32;6.10;;;1.70;;
27668;SDS011;15075;54.254;9.066;2022-07-09T14:43:01;6.05;;;1.47;;
27668;SDS011;15075;54.254;9.066;2022-07-09T14:48:03;5.77;;;1.90;;
27668;SDS011;15075;54.254;9.066;2022-07-09T14:50:36;8.97;;;1.90;;
27668;SDS011;15075;54.254;9.066;2022-07-09T14:53:05;6.47;;;1.87;;
27668;SDS011;15075;54.254;9.066;2022-07-09T14:55:38;3.80;;;1.40;;
27668;SDS011;15075;54.254;9.066;2022-07-09T14:58:07;5.20;;;1.90;;
27668;SDS011;15075;54.254;9.066;2022-07-09T15:00:37;10.90;;;2.13;;
27668;SDS011;15075;54.254;9.066;2022-07-09T15:03:06;13.00;;;2.10;;
27668;SDS011;15075;54.254;9.066;2022-07-09T15:05:36;5.20;;;1.70;;
27668;SDS011;15075;54.254;9.066;2022-07-09T15:08:11;8.30;;;2.30;;
27668;SDS011;15075;54.254;9.066;2022-07-09T15:10:40;9.70;;;2.00;;
27668;SDS011;15075;54.254;9.066;2022-07-09T15:15:39;7.83;;;1.90;;
27668;SDS011;15075;54.254;9.066;2022-07-09T15:18:08;10.35;;;2.10;;
27668;SDS011;15075;54.254;9.066;2022-07-09T15:20:38;4.20;;;1.30;;
27668;SDS011;15075;54.254;9.066;2022-07-09T15:23:07;5.93;;;1.90;;
27668;SDS011;15075;54.254;9.066;2022-07-09T15:25:36;4.60;;;1.60;;
27668;SDS011;15075;54.254;9.066;2022-07-09T15:28:06;6.17;;;2.03;;
27668;SDS011;15075;54.254;9.066;2022-07-09T15:30:35;10.33;;;2.30;;
27668;SDS011;15075;54.254;9.066;2022-07-09T15:33:04;5.27;;;1.60;;
27668;SDS011;15075;54.254;9.066;2022-07-09T15:35:34;8.20;;;2.10;;
27668;SDS011;15075;54.254;9.066;2022-07-09T15:38:03;7.50;;;1.70;;
27668;SDS011;15075;54.254;9.066;2022-07-09T15:40:32;11.20;;;2.55;;
27668;SDS011;15075;54.254;9.066;2022-07-09T15:43:03;6.90;;;1.90;;
27668;SDS011;15075;54.254;9.066;2022-07-09T15:45:32;12.25;;;2.02;;
27668;SDS011;15075;54.254;9.066;2022-07-09T15:48:01;3.60;;;1.60;;
27668;SDS011;15075;54.254;9.066;2022-07-09T15:50:30;4.70;;;1.50;;
27668;SDS011;15075;54.254;9.066;2022-07-09T15:53:00;8.20;;;2.57;;
27668;SDS011;15075;54.254;9.066;2022-07-09T15:57:58;11.50;;;2.00;;
27668;SDS011;15075;54.254;9.066;2022-07-09T16:00:27;7.50;;;1.60;;
27668;SDS011;15075;54.254;9.066;2022-07-09T16:02:57;12.40;;;2.40;;
27668;SDS011;15075;54.254;9.066;2022-07-09T16:05:26;8.00;;;2.30;;
27668;SDS011;15075;54.254;9.066;2022-07-09T16:07:55;7.50;;;1.90;;
27668;SDS011;15075;54.254;9.066;2022-07-09T16:13:06;4.47;;;1.83;;
27668;SDS011;15075;54.254;9.066;2022-07-09T16:15:36;10.20;;;2.67;;
27668;SDS011;15075;54.254;9.066;2022-07-09T16:18:05;5.50;;;1.97;;
27668;SDS011;15075;54.254;9.066;2022-07-09T16:20:35;11.77;;;1.80;;
27668;SDS011;15075;54.254;9.066;2022-07-09T16:23:07;5.97;;;2.00;;
27668;SDS011;15075;54.254;9.066;2022-07-09T16:25:34;8.17;;;1.90;;
27668;SDS011;15075;54.254;9.066;2022-07-09T16:28:04;5.75;;;2.22;;
27668;SDS011;15075;54.254;9.066;2022-07-09T16:30:33;9.25;;;2.10;;
27668;SDS011;15075;54.254;9.066;2022-07-09T16:33:03;10.73;;;2.33;;
27668;SDS011;15075;54.254;9.066;2022-07-09T16:35:32;10.45;;;2.55;;
27668;SDS011;15075;54.254;9.066;2022-07-09T16:38:01;9.80;;;1.70;;
27668;SDS011;15075;54.254;9.066;2022-07-09T16:40:31;11.20;;;2.13;;
27668;SDS011;15075;54.254;9.066;2022-07-09T16:45:29;6.80;;;1.60;;
27668;SDS011;15075;54.254;9.066;2022-07-09T16:47:58;5.50;;;1.57;;
27668;SDS011;15075;54.254;9.066;2022-07-09T16:50:28;8.97;;;1.70;;
27668;SDS011;15075;54.254;9.066;2022-07-09T16:55:27;3.55;;;1.40;;
27668;SDS011;15075;54.254;9.066;2022-07-09T16:57:56;6.77;;;1.87;;
27668;SDS011;15075;54.254;9.066;2022-07-09T17:00:25;6.55;;;1.67;;
27668;SDS011;15075;54.254;9.066;2022-07-09T17:05:24;5.47;;;1.30;;
27668;SDS011;15075;54.254;9.066;2022-07-09T17:07:53;4.77;;;1.33;;
27668;SDS011;15075;54.254;9.066;2022-07-09T17:10:23;4.10;;;1.50;;
27668;SDS011;15075;54.254;9.066;2022-07-09T17:12:55;9.60;;;1.70;;
27668;SDS011;15075;54.254;9.066;2022-07-09T17:15:25;6.77;;;1.33;;
27668;SDS011;15075;54.254;9.066;2022-07-09T17:17:55;6.20;;;1.20;;
27668;SDS011;15075;54.254;9.066;2022-07-09T17:25:22;7.07;;;2.10;;
27668;SDS011;15075;54.254;9.066;2022-07-09T17:27:51;2.80;;;1.20;;
27668;SDS011;15075;54.254;9.066;2022-07-09T17:30:21;6.77;;;1.30;;
27668;SDS011;15075;54.254;9.066;2022-07-09T17:32:50;6.23;;;1.90;;
27668;SDS011;15075;54.254;9.066;2022-07-09T17:35:20;3.27;;;1.40;;
27668;SDS011;15075;54.254;9.066;2022-07-09T17:45:17;3.53;;;1.17;;
27668;SDS011;15075;54.254;9.066;2022-07-09T17:47:46;6.33;;;1.40;;
27668;SDS011;15075;54.254;9.066;2022-07-09T17:50:15;8.33;;;1.50;;
27668;SDS011;15075;54.254;9.066;2022-07-09T17:52:45;4.40;;;1.10;;
27668;SDS011;15075;54.254;9.066;2022-07-09T17:55:15;6.10;;;1.33;;
27668;SDS011;15075;54.254;9.066;2022-07-09T18:00:25;3.40;;;1.13;;
27668;SDS011;15075;54.254;9.066;2022-07-09T18:02:53;2.98;;;1.30;;
27668;SDS011;15075;54.254;9.066;2022-07-09T18:07:52;6.80;;;1.30;;
27668;SDS011;15075;54.254;9.066;2022-07-09T18:10:21;6.00;;;1.50;;
27668;SDS011;15075;54.254;9.066;2022-07-09T18:15:20;8.17;;;1.67;;
27668;SDS011;15075;54.254;9.066;2022-07-09T18:20:19;15.50;;;1.80;;
27668;SDS011;15075;54.254;9.066;2022-07-09T18:22:48;6.00;;;1.90;;
27668;SDS011;15075;54.254;9.066;2022-07-09T18:25:18;11.60;;;2.00;;
27668;SDS011;15075;54.254;9.066;2022-07-09T18:30:16;5.97;;;1.60;;
27668;SDS011;15075;54.254;9.066;2022-07-09T18:32:45;6.67;;;1.57;;
27668;SDS011;15075;54.254;9.066;2022-07-09T18:35:15;5.20;;;1.23;;
27668;SDS011;15075;54.254;9.066;2022-07-09T18:37:44;2.65;;;1.12;;
27668;SDS011;15075;54.254;9.066;2022-07-09T18:42:43;4.93;;;1.60;;
27668;SDS011;15075;54.254;9.066;2022-07-09T18:45:13;5.37;;;1.37;;
27668;SDS011;15075;54.254;9.066;2022-07-09T18:47:43;2.77;;;1.17;;
27668;SDS011;15075;54.254;9.066;2022-07-09T19:02:42;5.60;;;1.60;;
27668;SDS011;15075;54.254;9.066;2022-07-09T19:05:11;4.00;;;1.20;;
27668;SDS011;15075;54.254;9.066;2022-07-09T19:07:41;6.93;;;1.40;;
27668;SDS011;15075;54.254;9.066;2022-07-09T19:10:11;4.87;;;1.15;;
27668;SDS011;15075;54.254;9.066;2022-07-09T19:15:10;3.85;;;1.20;;
27668;SDS011;15075;54.254;9.066;2022-07-09T19:17:40;6.10;;;1.60;;
27668;SDS011;15075;54.254;9.066;2022-07-09T19:20:09;2.40;;;1.20;;
27668;SDS011;15075;54.254;9.066;2022-07-09T19:22:39;5.20;;;1.33;;
27668;SDS011;15075;54.254;9.066;2022-07-09T19:25:08;6.30;;;1.45;;
27668;SDS011;15075;54.254;9.066;2022-07-09T19:27:38;9.17;;;1.50;;
27668;SDS011;15075;54.254;9.066;2022-07-09T19:30:08;6.80;;;1.57;;
27668;SDS011;15075;54.254;9.066;2022-07-09T19:32:38;2.40;;;1.20;;
27668;SDS011;15075;54.254;9.066;2022-07-09T19:35:10;7.57;;;1.50;;
27668;SDS011;15075;54.254;9.066;2022-07-09T19:37:40;4.83;;;1.30;;